sensor_id;sensor_type;location;lat;lon;timestamp;P1;durP1;ratioP1;P2;durP2;ratioP2
30287;SDS011;17103;48.316;11.558;2023-04-03T00:01:13;3.13;;;1.33;;
30287;SDS011;17103;48.316;11.558;2023-04-03T00:03:40;1.92;;;1.33;;
30287;SDS011;17103;48.316;11.558;2023-04-03T00:06:06;1.88;;;1.10;;
30287;SDS011;17103;48.316;11.558;2023-04-03T00:08:34;1.77;;;1.15;;
30287;SDS011;17103;48.316;11.558;2023-04-03T00:11:00;1.75;;;0.98;;
30287;SDS011;17103;48.316;11.558;2023-04-03T00:13:28;4.03;;;1.38;;
30287;SDS011;17103;48.316;11.558;2023-04-03T00:15:53;1.85;;;1.23;;
30287;SDS011;17103;48.316;11.558;2023-04-03T00:18:19;1.60;;;1.08;;
30287;SDS011;17103;48.316;11.558;2023-04-03T00:20:45;3.47;;;1.38;;
30287;SDS011;17103;48.316;11.558;2023-04-03T00:23:10;1.42;;;1.10;;
30287;SDS011;17103;48.316;11.558;2023-04-03T00:25:36;1.95;;;1.38;;
30287;SDS011;17103;48.316;11.558;2023-04-03T00:28:02;1.20;;;0.90;;
30287;SDS011;17103;48.316;11.558;2023-04-03T00:30:29;1.20;;;1.00;;
30287;SDS011;17103;48.316;11.558;2023-04-03T00:32:55;3.30;;;1.30;;
30287;SDS011;17103;48.316;11.558;2023-04-03T00:35:21;1.90;;;0.88;;
30287;SDS011;17103;48.316;11.558;2023-04-03T00:37:47;2.05;;;1.10;;
30287;SDS011;17103;48.316;11.558;2023-04-03T00:40:15;1.50;;;1.02;;
30287;SDS011;17103;48.316;11.558;2023-04-03T00:42:42;2.00;;;0.95;;
30287;SDS011;17103;48.316;11.558;2023-04-03T00:47:40;2.22;;;1.52;;
30287;SDS011;17103;48.316;11.558;2023-04-03T00:50:06;2.38;;;1.00;;
30287;SDS011;17103;48.316;11.558;2023-04-03T00:52:33;1.60;;;0.80;;
30287;SDS011;17103;48.316;11.558;2023-04-03T00:55:00;1.60;;;1.10;;
30287;SDS011;17103;48.316;11.558;2023-04-03T00:57:32;2.47;;;1.20;;
30287;SDS011;17103;48.316;11.558;2023-04-03T00:59:59;1.10;;;0.93;;
30287;SDS011;17103;48.316;11.558;2023-04-03T01:02:29;1.80;;;0.85;;
30287;SDS011;17103;48.316;11.558;2023-04-03T01:04:54;1.13;;;0.68;;
30287;SDS011;17103;48.316;11.558;2023-04-03T01:07:21;0.75;;;0.68;;
30287;SDS011;17103;48.316;11.558;2023-04-03T01:09:52;2.20;;;1.15;;
30287;SDS011;17103;48.316;11.558;2023-04-03T01:12:30;1.08;;;0.90;;
30287;SDS011;17103;48.316;11.558;2023-04-03T01:14:58;1.70;;;0.95;;
30287;SDS011;17103;48.316;11.558;2023-04-03T01:17:36;0.95;;;0.70;;
30287;SDS011;17103;48.316;11.558;2023-04-03T01:22:58;1.23;;;0.65;;
30287;SDS011;17103;48.316;11.558;2023-04-03T01:25:45;1.65;;;0.68;;
30287;SDS011;17103;48.316;11.558;2023-04-03T01:28:20;0.95;;;0.77;;
30287;SDS011;17103;48.316;11.558;2023-04-03T01:30:51;1.63;;;0.70;;
30287;SDS011;17103;48.316;11.558;2023-04-03T01:33:19;1.35;;;1.20;;
30287;SDS011;17103;48.316;11.558;2023-04-03T01:35:44;1.75;;;0.82;;
30287;SDS011;17103;48.316;11.558;2023-04-03T01:38:11;1.42;;;0.82;;
30287;SDS011;17103;48.316;11.558;2023-04-03T01:40:37;1.08;;;0.70;;
30287;SDS011;17103;48.316;11.558;2023-04-03T01:43:02;2.47;;;0.82;;
30287;SDS011;17103;48.316;11.558;2023-04-03T01:45:28;1.45;;;0.75;;
30287;SDS011;17103;48.316;11.558;2023-04-03T01:47:54;1.52;;;0.80;;
30287;SDS011;17103;48.316;11.558;2023-04-03T01:50:20;1.20;;;0.73;;
30287;SDS011;17103;48.316;11.558;2023-04-03T01:52:45;1.75;;;0.70;;
30287;SDS011;17103;48.316;11.558;2023-04-03T01:55:11;1.20;;;0.70;;
30287;SDS011;17103;48.316;11.558;2023-04-03T01:57:37;1.50;;;0.68;;
30287;SDS011;17103;48.316;11.558;2023-04-03T02:00:03;1.80;;;0.57;;
30287;SDS011;17103;48.316;11.558;2023-04-03T02:02:30;1.30;;;0.80;;
30287;SDS011;17103;48.316;11.558;2023-04-03T02:04:55;1.13;;;1.00;;
30287;SDS011;17103;48.316;11.558;2023-04-03T02:07:21;1.42;;;0.85;;
30287;SDS011;17103;48.316;11.558;2023-04-03T02:09:47;0.88;;;0.50;;
30287;SDS011;17103;48.316;11.558;2023-04-03T02:12:12;1.70;;;0.80;;
30287;SDS011;17103;48.316;11.558;2023-04-03T02:14:38;1.63;;;0.88;;
30287;SDS011;17103;48.316;11.558;2023-04-03T02:17:04;1.55;;;0.98;;
30287;SDS011;17103;48.316;11.558;2023-04-03T02:19:33;1.58;;;1.00;;
30287;SDS011;17103;48.316;11.558;2023-04-03T02:22:05;1.50;;;0.90;;
30287;SDS011;17103;48.316;11.558;2023-04-03T02:24:31;0.77;;;0.57;;
30287;SDS011;17103;48.316;11.558;2023-04-03T02:26:57;1.25;;;0.73;;
30287;SDS011;17103;48.316;11.558;2023-04-03T02:29:22;2.22;;;0.60;;
30287;SDS011;17103;48.316;11.558;2023-04-03T02:31:48;2.67;;;0.63;;
30287;SDS011;17103;48.316;11.558;2023-04-03T02:34:14;1.85;;;0.80;;
30287;SDS011;17103;48.316;11.558;2023-04-03T02:36:40;2.00;;;1.02;;
30287;SDS011;17103;48.316;11.558;2023-04-03T02:39:05;1.48;;;0.80;;
30287;SDS011;17103;48.316;11.558;2023-04-03T02:41:31;0.93;;;0.77;;
30287;SDS011;17103;48.316;11.558;2023-04-03T02:44:03;1.15;;;0.80;;
30287;SDS011;17103;48.316;11.558;2023-04-03T02:46:30;2.80;;;1.00;;
30287;SDS011;17103;48.316;11.558;2023-04-03T02:48:56;3.08;;;1.00;;
30287;SDS011;17103;48.316;11.558;2023-04-03T02:51:22;1.25;;;0.70;;
30287;SDS011;17103;48.316;11.558;2023-04-03T02:53:48;2.42;;;0.60;;
30287;SDS011;17103;48.316;11.558;2023-04-03T02:56:14;2.28;;;1.00;;
30287;SDS011;17103;48.316;11.558;2023-04-03T02:58:42;2.63;;;1.40;;
30287;SDS011;17103;48.316;11.558;2023-04-03T03:01:08;1.55;;;0.85;;
30287;SDS011;17103;48.316;11.558;2023-04-03T03:03:34;2.15;;;0.85;;
30287;SDS011;17103;48.316;11.558;2023-04-03T03:06:01;1.73;;;0.82;;
30287;SDS011;17103;48.316;11.558;2023-04-03T03:08:31;3.70;;;0.80;;
30287;SDS011;17103;48.316;11.558;2023-04-03T03:10:58;1.65;;;0.73;;
30287;SDS011;17103;48.316;11.558;2023-04-03T03:13:23;1.42;;;0.70;;
30287;SDS011;17103;48.316;11.558;2023-04-03T03:15:49;2.53;;;1.13;;
30287;SDS011;17103;48.316;11.558;2023-04-03T03:18:15;2.08;;;0.82;;
30287;SDS011;17103;48.316;11.558;2023-04-03T03:20:41;2.00;;;0.70;;
30287;SDS011;17103;48.316;11.558;2023-04-03T03:23:07;1.25;;;0.80;;
30287;SDS011;17103;48.316;11.558;2023-04-03T03:25:32;1.98;;;0.90;;
30287;SDS011;17103;48.316;11.558;2023-04-03T03:27:58;1.33;;;0.75;;
30287;SDS011;17103;48.316;11.558;2023-04-03T03:30:23;1.30;;;0.80;;
30287;SDS011;17103;48.316;11.558;2023-04-03T03:32:49;1.65;;;0.88;;
30287;SDS011;17103;48.316;11.558;2023-04-03T03:35:15;2.00;;;0.75;;
30287;SDS011;17103;48.316;11.558;2023-04-03T03:37:40;1.15;;;0.93;;
30287;SDS011;17103;48.316;11.558;2023-04-03T03:40:06;1.45;;;0.82;;
30287;SDS011;17103;48.316;11.558;2023-04-03T03:42:32;1.05;;;0.82;;
30287;SDS011;17103;48.316;11.558;2023-04-03T03:44:58;1.42;;;0.80;;
30287;SDS011;17103;48.316;11.558;2023-04-03T03:47:23;1.80;;;0.90;;
30287;SDS011;17103;48.316;11.558;2023-04-03T03:49:50;1.75;;;0.95;;
30287;SDS011;17103;48.316;11.558;2023-04-03T03:52:16;1.73;;;0.70;;
30287;SDS011;17103;48.316;11.558;2023-04-03T03:54:41;1.60;;;1.08;;
30287;SDS011;17103;48.316;11.558;2023-04-03T03:57:07;2.55;;;1.13;;
30287;SDS011;17103;48.316;11.558;2023-04-03T03:59:34;2.00;;;0.93;;
30287;SDS011;17103;48.316;11.558;2023-04-03T04:01:59;3.28;;;1.20;;
30287;SDS011;17103;48.316;11.558;2023-04-03T04:04:25;1.60;;;0.80;;
30287;SDS011;17103;48.316;11.558;2023-04-03T04:06:51;1.40;;;0.80;;
30287;SDS011;17103;48.316;11.558;2023-04-03T04:09:17;1.25;;;0.98;;
30287;SDS011;17103;48.316;11.558;2023-04-03T04:11:43;1.63;;;0.93;;
30287;SDS011;17103;48.316;11.558;2023-04-03T04:14:10;2.20;;;0.90;;
30287;SDS011;17103;48.316;11.558;2023-04-03T04:16:37;2.17;;;1.00;;
30287;SDS011;17103;48.316;11.558;2023-04-03T04:19:03;1.60;;;0.82;;
30287;SDS011;17103;48.316;11.558;2023-04-03T04:21:28;2.42;;;1.00;;
30287;SDS011;17103;48.316;11.558;2023-04-03T04:23:54;1.98;;;1.25;;
30287;SDS011;17103;48.316;11.558;2023-04-03T04:26:20;2.75;;;0.90;;
30287;SDS011;17103;48.316;11.558;2023-04-03T04:28:45;2.95;;;0.90;;
30287;SDS011;17103;48.316;11.558;2023-04-03T04:31:11;2.80;;;0.65;;
30287;SDS011;17103;48.316;11.558;2023-04-03T04:33:37;1.17;;;0.70;;
30287;SDS011;17103;48.316;11.558;2023-04-03T04:36:02;1.55;;;0.70;;
30287;SDS011;17103;48.316;11.558;2023-04-03T04:38:28;2.10;;;0.90;;
30287;SDS011;17103;48.316;11.558;2023-04-03T04:40:53;2.05;;;1.23;;
30287;SDS011;17103;48.316;11.558;2023-04-03T04:43:19;2.33;;;0.90;;
30287;SDS011;17103;48.316;11.558;2023-04-03T04:45:45;2.47;;;0.90;;
30287;SDS011;17103;48.316;11.558;2023-04-03T04:48:10;1.35;;;1.00;;
30287;SDS011;17103;48.316;11.558;2023-04-03T04:50:36;3.90;;;1.20;;
30287;SDS011;17103;48.316;11.558;2023-04-03T04:53:02;1.08;;;0.80;;
30287;SDS011;17103;48.316;11.558;2023-04-03T04:55:29;1.50;;;0.70;;
30287;SDS011;17103;48.316;11.558;2023-04-03T04:57:54;1.98;;;0.90;;
30287;SDS011;17103;48.316;11.558;2023-04-03T05:00:20;1.25;;;0.77;;
30287;SDS011;17103;48.316;11.558;2023-04-03T05:02:46;1.70;;;0.95;;
30287;SDS011;17103;48.316;11.558;2023-04-03T05:05:12;2.10;;;1.15;;
30287;SDS011;17103;48.316;11.558;2023-04-03T05:07:37;2.13;;;1.27;;
30287;SDS011;17103;48.316;11.558;2023-04-03T05:10:03;2.22;;;1.13;;
30287;SDS011;17103;48.316;11.558;2023-04-03T05:12:29;1.90;;;1.17;;
30287;SDS011;17103;48.316;11.558;2023-04-03T05:14:55;1.88;;;1.20;;
30287;SDS011;17103;48.316;11.558;2023-04-03T05:17:20;1.55;;;1.10;;
30287;SDS011;17103;48.316;11.558;2023-04-03T05:19:46;2.72;;;1.08;;
30287;SDS011;17103;48.316;11.558;2023-04-03T05:22:12;3.05;;;1.85;;
30287;SDS011;17103;48.316;11.558;2023-04-03T05:24:37;1.50;;;1.23;;
30287;SDS011;17103;48.316;11.558;2023-04-03T05:27:03;2.50;;;1.13;;
30287;SDS011;17103;48.316;11.558;2023-04-03T05:29:29;1.50;;;1.10;;
30287;SDS011;17103;48.316;11.558;2023-04-03T05:31:55;1.77;;;1.20;;
30287;SDS011;17103;48.316;11.558;2023-04-03T05:34:20;2.65;;;1.63;;
30287;SDS011;17103;48.316;11.558;2023-04-03T05:36:46;2.90;;;1.13;;
30287;SDS011;17103;48.316;11.558;2023-04-03T05:39:12;4.43;;;1.30;;
30287;SDS011;17103;48.316;11.558;2023-04-03T05:41:38;1.80;;;1.27;;
30287;SDS011;17103;48.316;11.558;2023-04-03T05:44:03;3.05;;;1.60;;
30287;SDS011;17103;48.316;11.558;2023-04-03T05:48:59;3.63;;;2.15;;
30287;SDS011;17103;48.316;11.558;2023-04-03T05:51:30;3.22;;;1.48;;
30287;SDS011;17103;48.316;11.558;2023-04-03T05:54:03;3.35;;;2.00;;
30287;SDS011;17103;48.316;11.558;2023-04-03T05:56:42;2.38;;;1.73;;
30287;SDS011;17103;48.316;11.558;2023-04-03T05:59:09;3.28;;;1.67;;
30287;SDS011;17103;48.316;11.558;2023-04-03T06:01:35;3.15;;;1.85;;
30287;SDS011;17103;48.316;11.558;2023-04-03T06:04:00;2.60;;;1.70;;
30287;SDS011;17103;48.316;11.558;2023-04-03T06:06:26;2.72;;;1.95;;
30287;SDS011;17103;48.316;11.558;2023-04-03T06:09:18;2.42;;;2.22;;
30287;SDS011;17103;48.316;11.558;2023-04-03T06:11:49;3.92;;;1.60;;
30287;SDS011;17103;48.316;11.558;2023-04-03T06:14:15;3.35;;;1.40;;
30287;SDS011;17103;48.316;11.558;2023-04-03T06:16:41;4.55;;;1.75;;
30287;SDS011;17103;48.316;11.558;2023-04-03T06:19:07;3.78;;;1.80;;
30287;SDS011;17103;48.316;11.558;2023-04-03T06:21:34;4.07;;;1.98;;
30287;SDS011;17103;48.316;11.558;2023-04-03T06:24:01;3.28;;;1.90;;
30287;SDS011;17103;48.316;11.558;2023-04-03T06:26:28;2.28;;;1.85;;
30287;SDS011;17103;48.316;11.558;2023-04-03T06:28:53;2.33;;;1.80;;
30287;SDS011;17103;48.316;11.558;2023-04-03T06:31:19;2.80;;;1.80;;
30287;SDS011;17103;48.316;11.558;2023-04-03T06:33:45;2.88;;;2.03;;
30287;SDS011;17103;48.316;11.558;2023-04-03T06:36:11;4.05;;;2.10;;
30287;SDS011;17103;48.316;11.558;2023-04-03T06:38:37;2.97;;;1.98;;
30287;SDS011;17103;48.316;11.558;2023-04-03T06:41:03;3.05;;;1.83;;
30287;SDS011;17103;48.316;11.558;2023-04-03T06:43:29;3.42;;;2.08;;
30287;SDS011;17103;48.316;11.558;2023-04-03T06:45:56;3.90;;;2.10;;
30287;SDS011;17103;48.316;11.558;2023-04-03T06:48:22;3.10;;;2.20;;
30287;SDS011;17103;48.316;11.558;2023-04-03T06:50:48;2.58;;;1.70;;
30287;SDS011;17103;48.316;11.558;2023-04-03T06:53:13;3.10;;;1.73;;
30287;SDS011;17103;48.316;11.558;2023-04-03T06:55:39;3.28;;;1.73;;
30287;SDS011;17103;48.316;11.558;2023-04-03T06:58:06;2.90;;;2.00;;
30287;SDS011;17103;48.316;11.558;2023-04-03T07:00:33;4.53;;;2.10;;
30287;SDS011;17103;48.316;11.558;2023-04-03T07:02:59;5.72;;;2.80;;
30287;SDS011;17103;48.316;11.558;2023-04-03T07:05:24;3.58;;;2.10;;
30287;SDS011;17103;48.316;11.558;2023-04-03T07:07:51;2.65;;;1.90;;
30287;SDS011;17103;48.316;11.558;2023-04-03T07:10:17;3.78;;;2.20;;
30287;SDS011;17103;48.316;11.558;2023-04-03T07:12:43;3.33;;;2.22;;
30287;SDS011;17103;48.316;11.558;2023-04-03T07:15:08;5.72;;;2.42;;
30287;SDS011;17103;48.316;11.558;2023-04-03T07:17:34;3.17;;;2.20;;
30287;SDS011;17103;48.316;11.558;2023-04-03T07:20:02;3.53;;;2.13;;
30287;SDS011;17103;48.316;11.558;2023-04-03T07:22:28;3.58;;;2.10;;
30287;SDS011;17103;48.316;11.558;2023-04-03T07:24:54;3.60;;;2.45;;
30287;SDS011;17103;48.316;11.558;2023-04-03T07:27:20;3.78;;;2.75;;
30287;SDS011;17103;48.316;11.558;2023-04-03T07:29:46;4.07;;;2.15;;
30287;SDS011;17103;48.316;11.558;2023-04-03T07:32:13;3.47;;;2.13;;
30287;SDS011;17103;48.316;11.558;2023-04-03T07:34:40;4.07;;;2.50;;
30287;SDS011;17103;48.316;11.558;2023-04-03T07:37:06;5.28;;;2.83;;
30287;SDS011;17103;48.316;11.558;2023-04-03T07:39:34;3.10;;;2.08;;
30287;SDS011;17103;48.316;11.558;2023-04-03T07:41:59;9.25;;;4.20;;
30287;SDS011;17103;48.316;11.558;2023-04-03T07:44:25;4.80;;;2.70;;
30287;SDS011;17103;48.316;11.558;2023-04-03T07:46:51;2.63;;;2.25;;
30287;SDS011;17103;48.316;11.558;2023-04-03T07:49:17;3.97;;;2.55;;
30287;SDS011;17103;48.316;11.558;2023-04-03T07:51:43;6.15;;;2.45;;
30287;SDS011;17103;48.316;11.558;2023-04-03T07:54:09;4.32;;;2.42;;
30287;SDS011;17103;48.316;11.558;2023-04-03T07:56:35;3.35;;;1.92;;
30287;SDS011;17103;48.316;11.558;2023-04-03T07:59:01;2.70;;;1.85;;
30287;SDS011;17103;48.316;11.558;2023-04-03T08:01:27;3.42;;;1.75;;
30287;SDS011;17103;48.316;11.558;2023-04-03T08:03:53;3.05;;;2.53;;
30287;SDS011;17103;48.316;11.558;2023-04-03T08:06:18;3.60;;;2.10;;
30287;SDS011;17103;48.316;11.558;2023-04-03T08:08:46;3.47;;;2.08;;
30287;SDS011;17103;48.316;11.558;2023-04-03T08:11:13;2.60;;;1.92;;
30287;SDS011;17103;48.316;11.558;2023-04-03T08:13:38;3.28;;;1.92;;
30287;SDS011;17103;48.316;11.558;2023-04-03T08:16:10;6.15;;;2.63;;
30287;SDS011;17103;48.316;11.558;2023-04-03T08:18:38;3.60;;;2.10;;
30287;SDS011;17103;48.316;11.558;2023-04-03T08:21:13;5.03;;;2.05;;
30287;SDS011;17103;48.316;11.558;2023-04-03T08:23:39;4.32;;;2.03;;
30287;SDS011;17103;48.316;11.558;2023-04-03T08:26:13;2.55;;;1.90;;
30287;SDS011;17103;48.316;11.558;2023-04-03T08:28:41;2.40;;;1.73;;
30287;SDS011;17103;48.316;11.558;2023-04-03T08:31:09;3.97;;;1.98;;
30287;SDS011;17103;48.316;11.558;2023-04-03T08:33:37;3.35;;;2.15;;
30287;SDS011;17103;48.316;11.558;2023-04-03T08:36:04;4.15;;;2.50;;
30287;SDS011;17103;48.316;11.558;2023-04-03T08:38:31;3.63;;;2.33;;
30287;SDS011;17103;48.316;11.558;2023-04-03T08:41:04;3.50;;;1.98;;
30287;SDS011;17103;48.316;11.558;2023-04-03T08:46:13;2.92;;;1.83;;
30287;SDS011;17103;48.316;11.558;2023-04-03T08:48:41;10.63;;;3.50;;
30287;SDS011;17103;48.316;11.558;2023-04-03T08:51:15;3.53;;;2.17;;
30287;SDS011;17103;48.316;11.558;2023-04-03T08:54:04;2.65;;;1.92;;
30287;SDS011;17103;48.316;11.558;2023-04-03T08:56:39;4.18;;;2.08;;
30287;SDS011;17103;48.316;11.558;2023-04-03T08:59:16;3.35;;;2.17;;
30287;SDS011;17103;48.316;11.558;2023-04-03T09:01:50;4.60;;;1.98;;
30287;SDS011;17103;48.316;11.558;2023-04-03T09:04:17;3.13;;;1.77;;
30287;SDS011;17103;48.316;11.558;2023-04-03T09:06:44;3.60;;;2.53;;
30287;SDS011;17103;48.316;11.558;2023-04-03T09:09:22;2.88;;;1.70;;
30287;SDS011;17103;48.316;11.558;2023-04-03T09:14:59;3.65;;;2.00;;
30287;SDS011;17103;48.316;11.558;2023-04-03T09:23:29;1.88;;;1.48;;
30287;SDS011;17103;48.316;11.558;2023-04-03T09:29:01;3.42;;;1.90;;
30287;SDS011;17103;48.316;11.558;2023-04-03T09:31:42;3.63;;;1.50;;
30287;SDS011;17103;48.316;11.558;2023-04-03T09:34:24;5.93;;;1.70;;
30287;SDS011;17103;48.316;11.558;2023-04-03T09:36:58;3.85;;;1.65;;
30287;SDS011;17103;48.316;11.558;2023-04-03T09:39:32;3.60;;;1.60;;
30287;SDS011;17103;48.316;11.558;2023-04-03T09:42:16;2.72;;;1.77;;
30287;SDS011;17103;48.316;11.558;2023-04-03T09:44:53;3.70;;;1.65;;
30287;SDS011;17103;48.316;11.558;2023-04-03T09:47:26;2.63;;;1.95;;
30287;SDS011;17103;48.316;11.558;2023-04-03T09:52:51;2.17;;;1.45;;
30287;SDS011;17103;48.316;11.558;2023-04-03T09:55:18;4.32;;;1.80;;
30287;SDS011;17103;48.316;11.558;2023-04-03T09:57:57;2.65;;;1.35;;
30287;SDS011;17103;48.316;11.558;2023-04-03T10:00:25;2.50;;;1.35;;
30287;SDS011;17103;48.316;11.558;2023-04-03T10:03:00;1.73;;;1.15;;
30287;SDS011;17103;48.316;11.558;2023-04-03T10:08:43;1.25;;;1.00;;
30287;SDS011;17103;48.316;11.558;2023-04-03T10:11:04;4.35;;;1.48;;
30287;SDS011;17103;48.316;11.558;2023-04-03T10:13:31;2.08;;;1.10;;
30287;SDS011;17103;48.316;11.558;2023-04-03T10:16:02;2.03;;;1.10;;
30287;SDS011;17103;48.316;11.558;2023-04-03T10:24:20;2.42;;;1.17;;
30287;SDS011;17103;48.316;11.558;2023-04-03T10:35:30;2.13;;;1.17;;
30287;SDS011;17103;48.316;11.558;2023-04-03T10:38:01;1.27;;;0.85;;
30287;SDS011;17103;48.316;11.558;2023-04-03T10:46:34;1.33;;;0.77;;
30287;SDS011;17103;48.316;11.558;2023-04-03T10:52:20;1.17;;;0.82;;
30287;SDS011;17103;48.316;11.558;2023-04-03T10:57:35;2.22;;;1.55;;
30287;SDS011;17103;48.316;11.558;2023-04-03T11:00:06;1.98;;;1.17;;
30287;SDS011;17103;48.316;11.558;2023-04-03T11:02:45;2.13;;;1.10;;
30287;SDS011;17103;48.316;11.558;2023-04-03T11:05:18;1.92;;;1.05;;
30287;SDS011;17103;48.316;11.558;2023-04-03T11:10:57;1.42;;;1.08;;
30287;SDS011;17103;48.316;11.558;2023-04-03T11:13:32;2.30;;;0.80;;
30287;SDS011;17103;48.316;11.558;2023-04-03T11:16:02;4.78;;;1.27;;
30287;SDS011;17103;48.316;11.558;2023-04-03T11:18:41;2.15;;;1.02;;
30287;SDS011;17103;48.316;11.558;2023-04-03T11:21:21;2.40;;;0.80;;
30287;SDS011;17103;48.316;11.558;2023-04-03T11:24:16;2.28;;;1.17;;
30287;SDS011;17103;48.316;11.558;2023-04-03T11:26:46;1.55;;;0.73;;
30287;SDS011;17103;48.316;11.558;2023-04-03T11:29:20;2.92;;;1.00;;
30287;SDS011;17103;48.316;11.558;2023-04-03T11:34:54;2.78;;;0.93;;
30287;SDS011;17103;48.316;11.558;2023-04-03T11:37:31;1.85;;;0.82;;
30287;SDS011;17103;48.316;11.558;2023-04-03T11:40:02;1.25;;;0.80;;
30287;SDS011;17103;48.316;11.558;2023-04-03T11:58:16;2.25;;;1.02;;
30287;SDS011;17103;48.316;11.558;2023-04-03T12:29:24;2.33;;;0.87;;
30287;SDS011;17103;48.316;11.558;2023-04-03T12:37:09;1.58;;;1.08;;
30287;SDS011;17103;48.316;11.558;2023-04-03T12:45:52;2.40;;;0.98;;
30287;SDS011;17103;48.316;11.558;2023-04-03T12:48:25;1.83;;;1.02;;
30287;SDS011;17103;48.316;11.558;2023-04-03T12:50:53;2.30;;;1.02;;
30287;SDS011;17103;48.316;11.558;2023-04-03T12:53:33;3.17;;;0.90;;
30287;SDS011;17103;48.316;11.558;2023-04-03T12:58:48;1.80;;;0.80;;
30287;SDS011;17103;48.316;11.558;2023-04-03T13:01:20;1.92;;;0.75;;
30287;SDS011;17103;48.316;11.558;2023-04-03T13:06:27;3.20;;;1.10;;
30287;SDS011;17103;48.316;11.558;2023-04-03T13:08:58;2.08;;;1.02;;
30287;SDS011;17103;48.316;11.558;2023-04-03T13:11:30;1.73;;;0.80;;
30287;SDS011;17103;48.316;11.558;2023-04-03T13:14:14;1.23;;;0.60;;
30287;SDS011;17103;48.316;11.558;2023-04-03T13:16:51;2.80;;;0.60;;
30287;SDS011;17103;48.316;11.558;2023-04-03T13:19:29;1.33;;;0.60;;
30287;SDS011;17103;48.316;11.558;2023-04-03T13:21:57;1.13;;;0.70;;
30287;SDS011;17103;48.316;11.558;2023-04-03T13:24:28;1.52;;;0.60;;
30287;SDS011;17103;48.316;11.558;2023-04-03T13:26:57;2.40;;;1.00;;
30287;SDS011;17103;48.316;11.558;2023-04-03T13:29:34;2.03;;;0.95;;
30287;SDS011;17103;48.316;11.558;2023-04-03T13:32:02;3.55;;;1.17;;
30287;SDS011;17103;48.316;11.558;2023-04-03T13:34:49;2.28;;;0.55;;
30287;SDS011;17103;48.316;11.558;2023-04-03T13:37:19;1.52;;;0.73;;
30287;SDS011;17103;48.316;11.558;2023-04-03T13:40:25;1.80;;;0.73;;
30287;SDS011;17103;48.316;11.558;2023-04-03T13:42:44;5.05;;;0.70;;
30287;SDS011;17103;48.316;11.558;2023-04-03T13:48:16;3.08;;;0.68;;
30287;SDS011;17103;48.316;11.558;2023-04-03T13:50:51;1.15;;;0.50;;
30287;SDS011;17103;48.316;11.558;2023-04-03T13:53:29;1.42;;;0.60;;
30287;SDS011;17103;48.316;11.558;2023-04-03T13:58:29;1.48;;;0.52;;
30287;SDS011;17103;48.316;11.558;2023-04-03T14:01:11;1.02;;;0.50;;
30287;SDS011;17103;48.316;11.558;2023-04-03T14:03:45;2.75;;;0.65;;
30287;SDS011;17103;48.316;11.558;2023-04-03T14:06:19;2.20;;;0.40;;
30287;SDS011;17103;48.316;11.558;2023-04-03T14:08:46;1.30;;;0.43;;
30287;SDS011;17103;48.316;11.558;2023-04-03T14:14:02;1.05;;;0.45;;
30287;SDS011;17103;48.316;11.558;2023-04-03T14:16:37;1.20;;;0.30;;
30287;SDS011;17103;48.316;11.558;2023-04-03T14:19:06;0.77;;;0.47;;
30287;SDS011;17103;48.316;11.558;2023-04-03T14:21:32;0.52;;;0.30;;
30287;SDS011;17103;48.316;11.558;2023-04-03T14:23:59;0.30;;;0.22;;
30287;SDS011;17103;48.316;11.558;2023-04-03T14:26:24;1.42;;;0.50;;
30287;SDS011;17103;48.316;11.558;2023-04-03T14:28:52;0.85;;;0.47;;
30287;SDS011;17103;48.316;11.558;2023-04-03T14:31:20;0.88;;;0.50;;
30287;SDS011;17103;48.316;11.558;2023-04-03T14:33:46;1.55;;;0.40;;
30287;SDS011;17103;48.316;11.558;2023-04-03T14:36:20;1.58;;;0.50;;
30287;SDS011;17103;48.316;11.558;2023-04-03T14:38:48;1.73;;;0.73;;
30287;SDS011;17103;48.316;11.558;2023-04-03T14:41:15;2.63;;;0.60;;
30287;SDS011;17103;48.316;11.558;2023-04-03T14:43:43;1.75;;;0.50;;
30287;SDS011;17103;48.316;11.558;2023-04-03T14:46:25;1.90;;;0.50;;
30287;SDS011;17103;48.316;11.558;2023-04-03T14:48:54;3.95;;;0.88;;
30287;SDS011;17103;48.316;11.558;2023-04-03T14:51:20;1.10;;;0.40;;
30287;SDS011;17103;48.316;11.558;2023-04-03T14:53:46;0.90;;;0.50;;
30287;SDS011;17103;48.316;11.558;2023-04-03T14:58:48;0.70;;;0.43;;
30287;SDS011;17103;48.316;11.558;2023-04-03T15:01:17;4.00;;;0.90;;
30287;SDS011;17103;48.316;11.558;2023-04-03T15:03:43;1.48;;;0.52;;
30287;SDS011;17103;48.316;11.558;2023-04-03T15:06:10;0.68;;;0.43;;
30287;SDS011;17103;48.316;11.558;2023-04-03T15:08:37;1.60;;;0.60;;
30287;SDS011;17103;48.316;11.558;2023-04-03T15:11:03;2.45;;;0.57;;
30287;SDS011;17103;48.316;11.558;2023-04-03T15:13:30;2.15;;;1.10;;
30287;SDS011;17103;48.316;11.558;2023-04-03T15:15:55;5.47;;;3.78;;
30287;SDS011;17103;48.316;11.558;2023-04-03T15:18:22;10.00;;;7.53;;
30287;SDS011;17103;48.316;11.558;2023-04-03T15:20:51;3.00;;;2.40;;
30287;SDS011;17103;48.316;11.558;2023-04-03T15:23:17;6.57;;;4.25;;
30287;SDS011;17103;48.316;11.558;2023-04-03T15:25:44;5.10;;;3.72;;
30287;SDS011;17103;48.316;11.558;2023-04-03T15:30:52;1.33;;;0.70;;
30287;SDS011;17103;48.316;11.558;2023-04-03T15:33:18;1.95;;;0.65;;
30287;SDS011;17103;48.316;11.558;2023-04-03T15:35:45;1.45;;;0.57;;
30287;SDS011;17103;48.316;11.558;2023-04-03T15:38:11;2.05;;;1.00;;
30287;SDS011;17103;48.316;11.558;2023-04-03T15:40:37;2.47;;;0.50;;
30287;SDS011;17103;48.316;11.558;2023-04-03T15:43:04;2.83;;;0.63;;
30287;SDS011;17103;48.316;11.558;2023-04-03T15:45:31;1.65;;;0.50;;
30287;SDS011;17103;48.316;11.558;2023-04-03T15:47:58;1.05;;;0.40;;
30287;SDS011;17103;48.316;11.558;2023-04-03T15:50:24;1.38;;;0.80;;
30287;SDS011;17103;48.316;11.558;2023-04-03T15:52:51;4.57;;;1.25;;
30287;SDS011;17103;48.316;11.558;2023-04-03T15:55:23;2.30;;;0.68;;
30287;SDS011;17103;48.316;11.558;2023-04-03T15:57:49;2.97;;;0.90;;
30287;SDS011;17103;48.316;11.558;2023-04-03T16:00:16;2.95;;;1.00;;
30287;SDS011;17103;48.316;11.558;2023-04-03T16:02:43;2.15;;;0.98;;
30287;SDS011;17103;48.316;11.558;2023-04-03T16:05:10;1.88;;;0.88;;
30287;SDS011;17103;48.316;11.558;2023-04-03T16:07:37;1.52;;;0.68;;
30287;SDS011;17103;48.316;11.558;2023-04-03T16:10:06;2.35;;;1.05;;
30287;SDS011;17103;48.316;11.558;2023-04-03T16:12:32;1.67;;;0.60;;
30287;SDS011;17103;48.316;11.558;2023-04-03T16:14:58;1.67;;;0.70;;
30287;SDS011;17103;48.316;11.558;2023-04-03T16:17:24;1.88;;;0.68;;
30287;SDS011;17103;48.316;11.558;2023-04-03T16:19:52;1.33;;;0.70;;
30287;SDS011;17103;48.316;11.558;2023-04-03T16:22:19;1.70;;;0.77;;
30287;SDS011;17103;48.316;11.558;2023-04-03T16:24:45;1.88;;;0.68;;
30287;SDS011;17103;48.316;11.558;2023-04-03T16:27:11;1.42;;;0.80;;
30287;SDS011;17103;48.316;11.558;2023-04-03T16:29:36;2.72;;;1.23;;
30287;SDS011;17103;48.316;11.558;2023-04-03T16:32:03;1.50;;;0.70;;
30287;SDS011;17103;48.316;11.558;2023-04-03T16:34:30;2.33;;;0.77;;
30287;SDS011;17103;48.316;11.558;2023-04-03T16:36:57;2.63;;;0.80;;
30287;SDS011;17103;48.316;11.558;2023-04-03T16:39:22;2.05;;;1.02;;
30287;SDS011;17103;48.316;11.558;2023-04-03T16:41:48;1.77;;;0.80;;
30287;SDS011;17103;48.316;11.558;2023-04-03T16:44:14;1.20;;;0.55;;
30287;SDS011;17103;48.316;11.558;2023-04-03T16:46:40;4.20;;;1.17;;
30287;SDS011;17103;48.316;11.558;2023-04-03T16:49:06;2.70;;;1.20;;
30287;SDS011;17103;48.316;11.558;2023-04-03T16:51:32;2.05;;;0.60;;
30287;SDS011;17103;48.316;11.558;2023-04-03T16:53:58;1.65;;;0.68;;
30287;SDS011;17103;48.316;11.558;2023-04-03T16:56:24;1.30;;;0.60;;